createdAt,value
2016-08-07T07:36:14.770Z,27.1
2016-08-07T07:36:24.798Z,26.8
2016-08-07T07:36:34.780Z,26.7
2016-08-07T07:36:44.784Z,26.5
2016-08-07T07:36:54.789Z,26.3
2016-08-07T07:37:04.796Z,26.2
2016-08-07T07:37:14.066Z,26.1
2016-08-07T07:37:24.805Z,26.1
2016-08-07T07:37:44.853Z,25.8
2016-08-07T07:37:54.358Z,25.7
2016-08-07T07:38:04.196Z,25.5
2016-08-07T07:38:14.833Z,25.4
2016-08-07T07:38:24.832Z,25.1
2016-08-07T07:38:34.104Z,25
2016-08-07T07:38:44.842Z,25
2016-08-07T07:38:54.849Z,24.8
2016-08-07T07:39:04.113Z,24.8
2016-08-07T07:39:14.854Z,24.7
2016-08-07T07:39:24.858Z,24.6
2016-08-07T07:39:34.859Z,24.5
2016-08-07T07:39:44.869Z,24.5
2016-08-07T07:39:54.875Z,24.3
2016-08-07T07:40:04.969Z,24.2
2016-08-07T07:40:15.322Z,24.1
2016-08-07T07:40:24.889Z,24.1
2016-08-07T07:40:34.898Z,23.9
2016-08-07T07:40:44.896Z,23.9
2016-08-07T07:40:54.899Z,23.8
2016-08-07T07:41:04.905Z,23.8
2016-08-07T07:41:15.148Z,23.6
2016-08-07T07:41:24.915Z,23.4
2016-08-07T07:41:34.926Z,23.3
2016-08-07T07:41:44.925Z,23.2
2016-08-07T07:41:54.932Z,23.2
2016-08-07T07:42:04.932Z,23
2016-08-07T07:42:14.939Z,23
2016-08-07T07:42:24.211Z,23
2016-08-07T07:42:34.949Z,22.8
2016-08-07T07:42:44.954Z,22.8
2016-08-07T07:42:54.961Z,22.7
2016-08-07T07:43:04.968Z,22.6
2016-08-07T07:43:14.966Z,22.5
2016-08-07T07:43:25.166Z,22.4
2016-08-07T07:43:34.979Z,22.4
2016-08-07T07:43:44.262Z,22.3
2016-08-07T07:43:55.008Z,22.3
2016-08-07T07:44:04.991Z,22.3
2016-08-07T07:44:14.998Z,22.2
2016-08-07T07:44:25.010Z,22.1
2016-08-07T07:44:34.346Z,22.1
2016-08-07T07:44:45.014Z,21.9
2016-08-07T07:44:55.025Z,21.9
2016-08-07T07:45:05.022Z,21.9
2016-08-07T07:45:13.569Z,21.9
2016-08-07T07:45:25.032Z,21.7
2016-08-07T07:45:35.036Z,21.7
2016-08-07T07:45:45.040Z,21.7
2016-08-07T07:45:55.047Z,21.7
2016-08-07T07:46:05.052Z,21.7
2016-08-07T07:46:14.336Z,21.7
2016-08-07T07:46:24.037Z,21.6
2016-08-07T07:46:34.365Z,21.6
2016-08-07T07:46:45.070Z,21.5
2016-08-07T07:46:55.074Z,21.5
2016-08-07T07:47:05.084Z,21.5
2016-08-07T07:47:15.085Z,21.6
2016-08-07T07:47:25.090Z,21.5
2016-08-07T07:47:35.092Z,21.5
2016-08-07T07:47:45.104Z,21.5
2016-08-07T07:47:55.099Z,21.4
2016-08-07T07:48:05.839Z,21.4
2016-08-07T08:01:58.549Z,24
2016-08-07T08:02:08.561Z,24.5
2016-08-07T08:02:18.559Z,24.6
2016-08-07T08:02:28.576Z,24.8
2016-08-07T08:02:38.568Z,25.5
2016-08-07T08:02:48.578Z,26.4
2016-08-07T08:02:58.580Z,26.5
2016-08-07T08:03:08.584Z,26.3
2016-08-07T08:03:18.588Z,26.2
2016-08-07T08:03:28.590Z,26
2016-08-07T08:03:37.128Z,25.9
2016-08-07T08:03:48.601Z,25.7
2016-08-07T08:03:58.606Z,25.6
2016-08-07T08:04:08.610Z,25.5
2016-08-07T08:04:18.815Z,25.4
2016-08-07T08:04:28.618Z,25.4
2016-08-07T08:04:38.628Z,25.3
2016-08-07T08:04:48.628Z,25.3
2016-08-07T08:04:58.635Z,25.2
2016-08-07T08:05:08.638Z,25.3
2016-08-07T08:05:18.648Z,25.5
2016-08-07T08:05:28.657Z,25.9
2016-08-07T08:05:38.661Z,26.3
2016-08-07T08:05:48.660Z,26.6
2016-08-07T08:05:58.662Z,26.5
2016-08-07T08:06:08.669Z,26.5
2016-08-07T08:06:18.670Z,26.9
2016-08-07T08:06:28.681Z,26.8
2016-08-07T08:06:38.683Z,26.7
2016-08-07T08:06:48.686Z,26.5
2016-08-07T08:06:58.698Z,26.5
2016-08-07T08:07:08.705Z,26.4
2016-08-07T08:07:18.705Z,26.6
2016-08-07T08:07:28.706Z,26.5
2016-08-07T08:07:38.719Z,26.6
2016-08-07T08:07:58.723Z,26.3
2016-08-07T08:08:08.736Z,26.1
2016-08-07T08:08:18.745Z,25.9
2016-08-07T08:08:28.739Z,25.7
2016-08-07T08:08:38.742Z,25.6
2016-08-07T08:08:48.748Z,25.5
2016-08-07T08:08:58.761Z,25.4
2016-08-07T08:09:08.758Z,25.4
2016-08-07T08:09:18.763Z,25.3
2016-08-07T08:09:28.774Z,25.2
2016-08-07T08:09:38.769Z,25
2016-08-07T08:09:48.776Z,24.9
2016-08-07T08:09:58.779Z,24.9
2016-08-07T08:10:08.787Z,24.8
2016-08-07T08:10:18.794Z,24.8
2016-08-07T08:10:28.797Z,24.7
2016-08-07T08:10:38.803Z,24.6
2016-08-07T08:10:48.808Z,24.6
2016-08-07T08:10:58.809Z,24.5
2016-08-07T08:11:08.815Z,24.5
2016-08-07T08:11:18.821Z,24.4
2016-08-07T08:11:28.829Z,24.4
2016-08-07T08:11:38.839Z,24.3
2016-08-07T08:11:48.846Z,24.2
2016-08-07T08:11:58.842Z,24.1
2016-08-07T08:12:08.109Z,24
2016-08-07T08:12:18.850Z,24
2016-08-07T08:12:28.857Z,24
2016-08-07T08:12:38.122Z,24
2016-08-07T08:12:48.867Z,23.9
2016-08-07T08:12:58.876Z,23.9
2016-08-07T08:13:08.879Z,23.8
2016-08-07T08:13:18.881Z,23.8
2016-08-07T08:13:28.160Z,23.7
2016-08-07T08:13:38.889Z,23.8
2016-08-07T08:13:48.895Z,23.7
2016-08-07T08:13:58.900Z,23.7
2016-08-07T08:14:08.907Z,23.7
2016-08-07T08:14:18.913Z,23.7
2016-08-07T08:14:28.928Z,23.6
2016-08-07T08:14:38.920Z,23.6
2016-08-07T08:14:48.928Z,23.6
2016-08-07T08:14:58.932Z,23.5
2016-08-07T08:15:07.469Z,23.5
2016-08-07T08:15:18.937Z,23.6
2016-08-07T08:15:28.945Z,23.6
2016-08-07T08:15:38.951Z,23.7
2016-08-07T08:15:48.956Z,24.2
2016-08-07T08:15:58.958Z,24.3
2016-08-07T08:16:08.231Z,24.2
2016-08-07T08:16:18.972Z,24.4
2016-08-07T08:16:28.977Z,24.9
2016-08-07T08:16:38.981Z,25.2
2016-08-07T08:16:48.985Z,25.1
2016-08-07T08:16:58.991Z,24.9
2016-08-07T08:17:08.994Z,24.9
2016-08-07T08:17:18.997Z,24.8
2016-08-07T08:17:29.004Z,24.7
2016-08-07T08:17:39.008Z,24.6
2016-08-07T08:17:49.062Z,24.7
2016-08-07T08:17:58.279Z,24.8
2016-08-07T08:18:09.025Z,24.9
2016-08-07T08:18:19.029Z,24.9
2016-08-07T08:18:29.042Z,24.9
2016-08-07T08:18:39.047Z,24.9
2016-08-07T08:18:49.044Z,24.8
2016-08-07T08:18:59.059Z,24.8
2016-08-07T08:19:09.053Z,24.8
2016-08-07T08:19:19.065Z,25
2016-08-07T08:19:28.327Z,24.9
2016-08-07T08:19:39.078Z,24.9
2016-08-07T08:19:49.078Z,24.8
2016-08-07T08:19:59.076Z,25
2016-08-07T08:20:09.083Z,24.9
2016-08-07T08:20:19.092Z,25
2016-08-07T08:20:29.096Z,25.1
2016-08-07T08:20:39.097Z,25.1
2016-08-07T08:20:49.106Z,25.1
2016-08-07T08:20:59.108Z,25.3
2016-08-07T08:21:09.117Z,25.3
2016-08-07T08:21:19.132Z,25.5
2016-08-07T08:21:29.124Z,25.9
2016-08-07T08:21:39.128Z,26.1
2016-08-07T08:21:49.133Z,26.2
2016-08-07T08:21:59.139Z,26.4
2016-08-07T08:22:09.144Z,26.7
2016-08-07T08:22:19.150Z,26.6
2016-08-07T08:22:29.155Z,26.6
2016-08-07T08:22:39.159Z,26.3
2016-08-07T08:22:57.990Z,26.3
2016-08-07T08:23:09.175Z,26.2
2016-08-07T08:23:18.450Z,26.1
2016-08-07T08:23:29.189Z,26
2016-08-07T08:23:39.187Z,25.9
2016-08-07T08:23:48.456Z,25.9
2016-08-07T08:23:59.197Z,25.7
2016-08-07T08:24:09.237Z,25.6
2016-08-07T08:24:18.482Z,25.3
2016-08-07T08:24:29.212Z,25.3
2016-08-07T08:24:39.218Z,25.3
2016-08-07T08:24:49.224Z,25.4
2016-08-07T08:24:59.232Z,25.4
2016-08-07T08:25:08.506Z,25.4
2016-08-07T08:25:19.253Z,25.4
2016-08-07T08:25:28.539Z,25.3
2016-08-07T08:25:38.515Z,25.2
2016-08-07T08:25:49.256Z,25.2
2016-08-07T08:25:59.262Z,25.2
2016-08-07T08:26:09.269Z,25.2
2016-08-07T08:26:19.275Z,25.1
2016-08-07T08:26:29.273Z,25.2
2016-08-07T08:26:39.279Z,25.1
2016-08-07T08:26:49.288Z,25.2
2016-08-07T08:26:59.288Z,25.2
2016-08-07T08:27:09.297Z,25.2
2016-08-07T08:27:19.299Z,25.1
2016-08-07T08:27:29.306Z,25.1
2016-08-07T08:27:38.573Z,25.1
2016-08-07T08:27:49.318Z,25.1
2016-08-07T08:27:59.321Z,25
2016-08-07T08:28:09.327Z,25.1
2016-08-07T08:28:19.342Z,25.3
2016-08-07T08:28:29.339Z,25.4
2016-08-07T08:28:38.610Z,25.4
2016-08-07T08:28:49.348Z,25.4
2016-08-07T08:28:59.352Z,25.3
2016-08-07T08:29:08.625Z,25.2
2016-08-07T08:29:19.364Z,25.1
2016-08-07T08:29:29.365Z,25.1
2016-08-07T08:29:39.373Z,24.9
2016-08-07T08:29:49.380Z,24.8
2016-08-07T08:29:59.387Z,24.8
2016-08-07T08:30:09.384Z,24.7
2016-08-07T08:30:19.397Z,24.6
2016-08-07T08:30:29.397Z,24.5
2016-08-07T08:30:39.409Z,24.5
2016-08-07T08:30:49.414Z,24.4
2016-08-07T08:30:59.413Z,24.5
2016-08-07T08:31:09.504Z,24.5
2016-08-07T08:31:19.430Z,24.4
2016-08-07T08:31:29.430Z,24.5
2016-08-07T08:31:39.435Z,24.5
2016-08-07T08:31:49.486Z,24.5
2016-08-07T08:31:59.450Z,24.5
2016-08-07T08:32:09.448Z,24.5
2016-08-07T08:32:19.454Z,24.5
2016-08-07T08:32:29.456Z,24.5
2016-08-07T08:32:38.726Z,24.5
2016-08-07T08:32:48.777Z,24.3
2016-08-07T08:32:59.470Z,24.1
2016-08-07T08:33:09.634Z,24.2
2016-08-07T08:33:19.485Z,24.2
2016-08-07T08:33:29.487Z,24.2
2016-08-07T08:33:39.490Z,24.2
2016-08-07T08:33:48.760Z,24.2
2016-08-07T08:33:59.503Z,24.1
2016-08-07T08:34:09.507Z,24.1
2016-08-07T08:34:19.512Z,24.1
2016-08-07T08:34:29.519Z,24.1
2016-08-07T08:34:39.525Z,24.1
2016-08-07T08:34:49.529Z,24.1
2016-08-07T08:34:58.802Z,24
2016-08-07T08:35:09.534Z,24
2016-08-07T08:35:19.545Z,24
2016-08-07T08:35:29.549Z,23.9
2016-08-07T08:35:39.554Z,23.9
2016-08-07T08:35:49.558Z,23.8
2016-08-07T08:35:59.562Z,23.8
2016-08-07T08:36:09.570Z,23.8
2016-08-07T08:36:19.574Z,23.8
2016-08-07T08:36:29.577Z,24.1
2016-08-07T08:36:39.581Z,24.2
2016-08-07T08:36:49.588Z,24.1
2016-08-07T08:36:59.598Z,24
2016-08-07T08:37:09.595Z,24
2016-08-07T08:37:19.601Z,23.9
2016-08-07T08:37:29.608Z,23.9
2016-08-07T08:37:38.882Z,23.9
2016-08-07T08:37:48.889Z,23.9
2016-08-07T08:38:09.628Z,23.9
2016-08-07T08:38:19.631Z,23.9
2016-08-07T08:38:29.637Z,23.9
2016-08-07T08:38:39.641Z,23.8
2016-08-07T08:38:49.648Z,23.8
2016-08-07T08:38:59.650Z,23.7
2016-08-07T08:39:09.655Z,23.7
2016-08-07T08:39:19.666Z,23.7
2016-08-07T08:39:29.666Z,23.6
2016-08-07T08:39:39.678Z,23.6
2016-08-07T08:39:49.676Z,23.6
2016-08-07T08:39:59.681Z,23.5
2016-08-07T08:40:09.707Z,23.5
2016-08-07T08:40:19.691Z,23.5
2016-08-07T08:40:29.696Z,23.5
2016-08-07T08:40:39.751Z,23.5
2016-08-07T08:40:48.251Z,23.5
2016-08-07T08:40:59.719Z,23.5
2016-08-07T08:41:09.717Z,23.5
2016-08-07T08:41:19.721Z,23.6
2016-08-07T08:41:29.000Z,23.6
2016-08-07T08:41:39.732Z,23.6
2016-08-07T08:41:49.784Z,23.6
2016-08-07T08:41:59.759Z,23.6
2016-08-07T08:42:09.753Z,23.6
2016-08-07T08:42:19.759Z,23.6
2016-08-07T08:42:29.758Z,24.1
2016-08-07T08:42:39.761Z,24.3
2016-08-07T08:42:49.766Z,24.5
2016-08-07T08:42:59.769Z,24.4
2016-08-07T08:43:09.778Z,24.5
2016-08-07T08:43:19.782Z,24.4
2016-08-07T08:43:29.786Z,24.3
2016-08-07T08:43:39.789Z,24.2
2016-08-07T08:43:49.798Z,24.1
2016-08-07T08:43:59.800Z,24.1
2016-08-07T08:44:09.805Z,23.9
2016-08-07T08:44:19.815Z,23.9
2016-08-07T08:44:29.831Z,23.8
2016-08-07T08:44:39.817Z,23.9
2016-08-07T08:44:49.828Z,23.9
2016-08-07T08:44:59.842Z,23.9
2016-08-07T08:45:08.365Z,23.9
2016-08-07T08:45:19.837Z,23.8
2016-08-07T08:45:29.863Z,23.8
2016-08-07T08:45:39.854Z,23.7
2016-08-07T08:45:49.851Z,23.7
2016-08-07T08:45:59.129Z,23.8
2016-08-07T08:46:09.866Z,23.8
2016-08-07T08:46:19.865Z,23.8
2016-08-07T08:46:29.146Z,23.8
2016-08-07T08:46:39.880Z,23.7
2016-08-07T08:46:49.884Z,23.7
2016-08-07T08:46:59.896Z,23.7
2016-08-07T08:47:09.158Z,23.7
2016-08-07T08:47:19.169Z,23.7
2016-08-07T08:47:29.185Z,23.6
2016-08-07T08:47:39.909Z,23.6
2016-08-07T08:47:49.187Z,23.6
2016-08-07T08:47:59.949Z,23.7
2016-08-07T08:48:09.940Z,23.8
2016-08-07T08:48:19.928Z,23.8
2016-08-07T08:48:29.935Z,23.8
2016-08-07T08:48:39.946Z,23.8
2016-08-07T08:48:49.940Z,23.8
2016-08-07T08:48:59.956Z,23.7
2016-08-07T08:49:09.961Z,23.7
2016-08-07T08:49:19.961Z,23.6
2016-08-07T08:49:29.964Z,23.6
2016-08-07T08:49:39.966Z,23.6
2016-08-07T08:49:49.973Z,23.6
2016-08-07T08:49:59.974Z,23.7
2016-08-07T08:50:09.981Z,24
2016-08-07T08:50:19.987Z,24.2
2016-08-07T08:50:29.993Z,24.5
2016-08-07T08:50:39.998Z,24.4
2016-08-07T08:50:50.001Z,24.2
2016-08-07T08:51:00.014Z,24.1
2016-08-07T08:51:10.009Z,24.1
2016-08-07T08:51:20.031Z,24.1
2016-08-07T08:51:30.022Z,24.1
2016-08-07T08:51:40.021Z,24.1
2016-08-07T08:51:50.032Z,24.6
2016-08-07T08:52:00.035Z,24.6
2016-08-07T08:52:10.038Z,24.5
2016-08-07T08:52:20.044Z,24.6
2016-08-07T08:52:30.053Z,24.6
2016-08-07T08:52:40.054Z,24.7
2016-08-07T08:52:50.061Z,25.2
2016-08-07T08:53:08.886Z,26.1
2016-08-07T08:53:20.073Z,26.4
2016-08-07T08:53:30.077Z,27.1
2016-08-07T08:53:40.085Z,27
2016-08-07T08:53:49.362Z,26.9
2016-08-07T08:54:00.092Z,26.9
2016-08-07T08:54:10.100Z,26.6
2016-08-07T08:54:20.105Z,26.8
2016-08-07T08:54:30.111Z,26.8
2016-08-07T08:54:40.116Z,26.8
2016-08-07T08:54:50.132Z,26.9
2016-08-07T08:55:00.126Z,26.9
2016-08-07T08:55:10.132Z,27.1
2016-08-07T08:55:19.402Z,27.2
2016-08-07T08:55:30.141Z,27.8
2016-08-07T08:55:40.142Z,27.7
2016-08-07T08:55:48.690Z,27.6
2016-08-07T08:56:00.154Z,27.5
2016-08-07T08:56:10.175Z,27.4
2016-08-07T08:56:20.164Z,27.2
2016-08-07T08:56:30.172Z,27
2016-08-07T08:56:40.232Z,27.6
2016-08-07T08:56:50.322Z,27.4
2016-08-07T08:57:00.234Z,27.3
2016-08-07T08:57:10.189Z,27.2
2016-08-07T08:57:20.217Z,27.5
2016-08-07T08:57:29.460Z,27.5
2016-08-07T08:57:40.203Z,27.6
2016-08-07T08:57:50.211Z,27.9
2016-08-07T08:58:00.219Z,27.8
2016-08-07T08:58:10.224Z,27.8
2016-08-07T08:58:19.555Z,28.1
2016-08-07T08:58:30.232Z,28.4
2016-08-07T08:58:40.238Z,28.3
2016-08-07T08:58:49.506Z,28.2
2016-08-07T08:58:59.514Z,28.4
2016-08-07T08:59:10.257Z,28.6
2016-08-07T08:59:20.260Z,28.7
2016-08-07T08:59:30.264Z,28.7
2016-08-07T08:59:40.271Z,28.7
2016-08-07T08:59:50.277Z,28.4
2016-08-07T09:00:00.284Z,28.3
2016-08-07T09:00:10.286Z,28.1
2016-08-07T09:00:19.555Z,28
2016-08-07T09:00:30.305Z,28
2016-08-07T09:00:40.312Z,28
2016-08-07T09:00:50.331Z,28
2016-08-07T09:01:00.312Z,28.1
2016-08-07T09:01:10.320Z,28.6
2016-08-07T09:01:20.322Z,29.1
2016-08-07T09:01:30.331Z,29.3
2016-08-07T09:01:40.333Z,29.3
2016-08-07T09:01:50.341Z,29.5
2016-08-07T09:02:00.348Z,29.5
2016-08-07T09:02:10.347Z,29.6
2016-08-07T09:02:20.356Z,30.1
2016-08-07T09:02:29.627Z,30
2016-08-07T09:02:40.372Z,30
2016-08-07T09:02:50.376Z,29.9
2016-08-07T09:03:00.382Z,29.8
2016-08-07T09:03:10.384Z,29.7
2016-08-07T09:03:20.393Z,29.5
2016-08-07T09:03:30.392Z,29.3
2016-08-07T09:03:40.403Z,29
2016-08-07T09:03:50.502Z,28.9
2016-08-07T09:04:00.411Z,28.8
2016-08-07T09:04:10.473Z,28.6
2016-08-07T09:04:20.430Z,28.4
2016-08-07T09:04:30.432Z,28.2
2016-08-07T09:04:40.437Z,28
2016-08-07T09:04:50.442Z,27.9
2016-08-07T09:05:00.449Z,27.9
2016-08-07T09:05:09.719Z,27.7
2016-08-07T09:05:20.456Z,27.4
2016-08-07T09:05:30.484Z,27.3
2016-08-07T09:05:40.528Z,27.2
2016-08-07T09:05:50.473Z,27.1
2016-08-07T09:06:00.480Z,27
2016-08-07T09:06:10.488Z,26.9
2016-08-07T09:06:20.488Z,26.9
2016-08-07T09:06:30.495Z,26.8
2016-08-07T09:06:40.497Z,26.8
2016-08-07T09:06:50.507Z,26.7
2016-08-07T09:07:00.510Z,26.6
2016-08-07T09:07:10.515Z,26.5
2016-08-07T09:07:19.791Z,26.4
2016-08-07T09:07:29.804Z,26.4
2016-08-07T09:07:40.532Z,26.4
2016-08-07T09:07:50.538Z,26.3
2016-08-07T09:08:20.555Z,25.9
2016-08-07T09:08:30.559Z,25.9
2016-08-07T09:08:40.614Z,25.8
2016-08-07T09:08:50.573Z,25.8
2016-08-07T09:09:00.579Z,25.6
2016-08-07T09:09:10.585Z,25.3
2016-08-07T09:09:20.591Z,25.3
2016-08-07T09:09:30.589Z,25.5
2016-08-07T09:09:40.595Z,25.8
2016-08-07T09:09:50.607Z,25.8
2016-08-07T09:10:00.610Z,25.9
2016-08-07T09:10:10.613Z,25.9
2016-08-07T09:10:20.625Z,26.1
2016-08-07T09:10:30.628Z,26
2016-08-07T09:10:40.632Z,26
2016-08-07T09:10:50.632Z,25.9
2016-08-07T09:11:00.640Z,25.7
2016-08-07T09:11:10.644Z,25.7
2016-08-07T09:11:20.651Z,25.7
2016-08-07T09:11:30.657Z,25.7
2016-08-07T09:11:40.670Z,25.8
2016-08-07T09:11:50.827Z,25.7
2016-08-07T09:11:59.933Z,25.6
2016-08-07T09:12:10.681Z,25.6
2016-08-07T09:12:20.687Z,25.6
2016-08-07T09:12:30.686Z,25.5
2016-08-07T09:12:40.066Z,25.6
2016-08-07T09:12:50.701Z,25.6
2016-08-07T09:13:00.713Z,25.6
2016-08-07T09:13:10.712Z,25.5
2016-08-07T09:13:20.715Z,25.5
2016-08-07T09:13:30.721Z,25.5
2016-08-07T09:13:39.988Z,25.6
2016-08-07T09:13:50.730Z,25.6
2016-08-07T09:14:00.734Z,25.8
2016-08-07T09:14:10.011Z,25.9
2016-08-07T09:14:20.764Z,26.2
2016-08-07T09:14:30.754Z,26.2
2016-08-07T09:14:40.754Z,26.3
2016-08-07T09:14:50.764Z,26.6
2016-08-07T09:15:00.767Z,26.7
2016-08-07T09:15:10.771Z,26.7
2016-08-07T09:15:20.789Z,26.7
2016-08-07T09:15:30.783Z,26.9
2016-08-07T09:15:40.788Z,27
2016-08-07T09:15:50.796Z,27.4
2016-08-07T09:16:00.071Z,27.7
2016-08-07T09:16:10.804Z,28.1
2016-08-07T09:16:20.810Z,28.4
2016-08-07T09:16:30.822Z,28.5
2016-08-07T09:16:40.824Z,28.5
2016-08-07T09:16:50.825Z,28.7
2016-08-07T09:17:00.832Z,28.7
2016-08-07T09:17:10.834Z,29
2016-08-07T09:17:20.843Z,29.5
2016-08-07T09:17:30.849Z,29.8
2016-08-07T09:17:40.852Z,30.2
2016-08-07T09:17:50.854Z,30.6
2016-08-07T09:18:00.861Z,30.7
2016-08-07T09:18:10.871Z,30.8
2016-08-07T09:18:20.870Z,31
2016-08-07T09:18:30.878Z,31.3
2016-08-07T09:18:40.881Z,31.7
2016-08-07T09:18:50.889Z,31.9
2016-08-07T09:19:00.895Z,32.3
2016-08-07T09:19:10.898Z,32.5
2016-08-07T09:19:20.908Z,32.8
2016-08-07T09:19:30.911Z,32.9
2016-08-07T09:19:40.920Z,33
2016-08-07T09:19:50.921Z,33.1
2016-08-07T09:20:00.931Z,33.3
2016-08-07T09:20:10.933Z,33.4
2016-08-07T09:20:20.942Z,33.6
2016-08-07T09:20:30.955Z,33.6
2016-08-07T09:20:40.950Z,33.9
2016-08-07T09:20:50.958Z,34
2016-08-07T09:21:00.964Z,34.3
2016-08-07T09:21:10.972Z,34.3
2016-08-07T09:21:21.006Z,34.4
2016-08-07T09:21:30.981Z,34.4
2016-08-07T09:21:40.983Z,34.6
2016-08-07T09:21:50.256Z,34.7
2016-08-07T09:22:00.997Z,34.9
2016-08-07T09:22:11.002Z,35.1
2016-08-07T09:22:21.016Z,35.4
2016-08-07T09:22:30.286Z,35.5
2016-08-07T09:22:41.021Z,35.5
2016-08-07T09:22:51.034Z,35.4
2016-08-07T09:23:01.035Z,35.3
2016-08-07T09:23:11.041Z,35.6
2016-08-07T09:23:31.052Z,36
2016-08-07T09:23:41.062Z,35.9
2016-08-07T09:23:50.328Z,36
2016-08-07T09:24:01.124Z,36.1
2016-08-07T09:24:11.079Z,36.3
2016-08-07T09:24:20.356Z,36.4
2016-08-07T09:24:31.094Z,36.4
2016-08-07T09:24:40.365Z,36.1
2016-08-07T09:24:51.110Z,36.1
2016-08-07T09:25:01.113Z,35.7
2016-08-07T09:25:11.119Z,36.2
2016-08-07T09:25:21.124Z,36
2016-08-07T09:25:30.401Z,35.9
2016-08-07T09:25:41.139Z,35.6
2016-08-07T09:25:51.148Z,36
2016-08-07T09:26:01.149Z,36.3
2016-08-07T09:26:11.157Z,36.3
2016-08-07T09:26:21.160Z,36.3
2016-08-07T09:26:31.168Z,36.2
2016-08-07T09:26:41.187Z,36.5
2016-08-07T09:26:51.183Z,36.2
2016-08-07T09:27:01.188Z,36.4
2016-08-07T09:27:11.197Z,36.7
2016-08-07T09:27:21.201Z,36.1
2016-08-07T09:27:31.208Z,35.4
2016-08-07T09:27:41.219Z,35.2
2016-08-07T09:27:51.221Z,34.9
2016-08-07T09:28:01.227Z,35.4
2016-08-07T09:28:11.240Z,35.4
2016-08-07T09:28:21.239Z,35.7
2016-08-07T09:28:31.254Z,35.6
2016-08-07T09:28:41.262Z,35.2
2016-08-07T09:28:51.260Z,34.8
2016-08-07T09:29:01.268Z,34.4
2016-08-07T09:29:11.273Z,34.3
2016-08-07T09:29:21.280Z,34.2
2016-08-07T09:29:30.550Z,34
2016-08-07T09:29:41.299Z,33.8
2016-08-07T09:29:51.299Z,33.5
2016-08-07T09:30:01.309Z,33.3
2016-08-07T09:30:11.316Z,33.2
2016-08-07T09:30:21.322Z,33.2
2016-08-07T09:30:31.325Z,33.1
2016-08-07T09:30:41.335Z,32.6
2016-08-07T09:30:51.342Z,32.1
2016-08-07T09:31:01.345Z,31.9
2016-08-07T09:31:11.348Z,31.9
2016-08-07T09:31:21.357Z,31.7
2016-08-07T09:31:31.362Z,31.9
2016-08-07T09:31:41.370Z,31.7
2016-08-07T09:31:51.373Z,31.3
2016-08-07T09:32:01.379Z,31.1
2016-08-07T09:32:11.400Z,31.1
2016-08-07T09:32:21.391Z,30.9
2016-08-07T09:32:31.405Z,30.6
2016-08-07T09:32:41.405Z,30.7
2016-08-07T09:32:51.414Z,30.6
2016-08-07T09:33:01.418Z,30.8
2016-08-07T09:33:11.424Z,31
2016-08-07T09:33:21.430Z,30.8
2016-08-07T09:33:31.437Z,30.6
2016-08-07T09:33:41.442Z,30.4
2016-08-07T09:33:50.719Z,30.2
2016-08-07T09:34:01.461Z,30.4
2016-08-07T09:34:11.462Z,30.9
2016-08-07T09:34:21.474Z,30.5
2016-08-07T09:34:31.478Z,30.4
2016-08-07T09:34:41.480Z,30.2
2016-08-07T09:34:51.486Z,29.7
2016-08-07T09:35:01.495Z,30.2
2016-08-07T09:35:10.771Z,30.7
2016-08-07T09:35:21.503Z,31
2016-08-07T09:35:31.509Z,31.4
2016-08-07T09:35:41.516Z,31.5
2016-08-07T09:35:51.521Z,31.6
2016-08-07T09:36:01.528Z,31.7
2016-08-07T09:36:11.539Z,31.5
2016-08-07T09:36:21.544Z,32
2016-08-07T09:36:31.546Z,31.8
2016-08-07T09:36:41.550Z,32.3
2016-08-07T09:36:51.556Z,32.2
2016-08-07T09:37:01.562Z,32.1
2016-08-07T09:37:11.574Z,32.3
2016-08-07T09:37:21.576Z,32.3
2016-08-07T09:37:31.588Z,32.3
2016-08-07T09:37:41.594Z,32.4
2016-08-07T09:37:50.854Z,32.1
2016-08-07T09:38:01.602Z,32.2
2016-08-07T09:38:11.606Z,31.9
2016-08-07T09:38:20.875Z,31.8
2016-08-07T09:38:41.618Z,31.6
2016-08-07T09:38:50.892Z,31.3
2016-08-07T09:39:01.632Z,31
2016-08-07T09:39:11.639Z,31
2016-08-07T09:39:21.646Z,30.9
2016-08-07T09:39:31.652Z,30.9
2016-08-07T09:39:41.655Z,30.8
2016-08-07T09:39:51.664Z,30.9
2016-08-07T09:40:00.930Z,30.9
2016-08-07T09:40:11.672Z,31.1
2016-08-07T09:40:21.681Z,31.2
2016-08-07T09:40:30.961Z,31.9
2016-08-07T09:40:41.690Z,31.7
2016-08-07T09:40:51.700Z,31.8
2016-08-07T09:41:01.705Z,31.9
2016-08-07T09:41:11.707Z,32.1
2016-08-07T09:41:21.716Z,32.3
2016-08-07T09:41:30.991Z,32.3
2016-08-07T09:41:41.725Z,32.3
2016-08-07T09:41:51.783Z,32.3
2016-08-07T09:42:01.736Z,32
2016-08-07T09:42:11.747Z,32.2
2016-08-07T09:42:21.749Z,32.1
2016-08-07T09:42:31.757Z,31.6
2016-08-07T09:42:41.764Z,31.6
2016-08-07T09:42:51.767Z,31.6
2016-08-07T09:43:01.772Z,31.4
2016-08-07T09:43:11.778Z,31.1
2016-08-07T09:43:21.785Z,31
2016-08-07T09:43:31.794Z,30.8
2016-08-07T09:43:41.794Z,30.8
2016-08-07T09:43:51.805Z,30.8
2016-08-07T09:44:01.805Z,30.7
2016-08-07T09:44:11.811Z,30.6
2016-08-07T09:44:21.827Z,30.9
2016-08-07T09:44:31.824Z,31
2016-08-07T09:44:41.841Z,31
2016-08-07T09:44:51.832Z,30.9
2016-08-07T09:45:01.849Z,30.9
2016-08-07T09:45:11.844Z,30.8
2016-08-07T09:45:21.852Z,30.7
2016-08-07T09:45:31.857Z,30.6
2016-08-07T09:45:41.862Z,30.5
2016-08-07T09:45:51.867Z,30.4
2016-08-07T09:46:01.874Z,30.3
2016-08-07T09:46:11.878Z,30.1
2016-08-07T09:46:21.898Z,30
2016-08-07T09:46:31.890Z,29.8
2016-08-07T09:46:41.899Z,29.6
2016-08-07T09:46:51.904Z,29.5
2016-08-07T09:47:01.904Z,29.4
2016-08-07T09:47:11.922Z,29.4
2016-08-07T09:47:21.918Z,29.3
2016-08-07T09:47:31.922Z,29.3
2016-08-07T09:47:41.929Z,29.3
2016-08-07T09:47:51.937Z,29.3
2016-08-07T09:48:01.954Z,29.4
2016-08-07T09:48:11.217Z,29.3
2016-08-07T09:48:21.950Z,29.3
2016-08-07T09:48:31.220Z,29.3
2016-08-07T09:48:41.966Z,29.2
2016-08-07T09:48:51.966Z,29.3
2016-08-07T09:49:01.971Z,29.4
2016-08-07T09:49:11.978Z,29.5
2016-08-07T09:49:21.985Z,29.5
2016-08-07T09:49:31.992Z,29.5
2016-08-07T09:49:41.995Z,29.5
2016-08-07T09:49:51.997Z,29.4
2016-08-07T09:50:02.009Z,29.4
2016-08-07T09:50:12.014Z,29.4
2016-08-07T09:50:22.017Z,29.3
2016-08-07T09:50:32.023Z,29.3
2016-08-07T09:50:41.297Z,29.3
2016-08-07T09:50:52.034Z,29.3
2016-08-07T09:51:01.314Z,29.3
2016-08-07T09:51:12.042Z,29.3
2016-08-07T09:51:22.049Z,29.3
2016-08-07T09:51:32.054Z,29.2
2016-08-07T09:51:42.060Z,29.2
2016-08-07T09:51:51.332Z,29.2
2016-08-07T09:52:01.331Z,29.3
2016-08-07T09:52:12.081Z,29.2
2016-08-07T09:52:22.082Z,29.3
2016-08-07T09:52:32.090Z,29.2
2016-08-07T09:52:42.093Z,29.2
2016-08-07T09:52:52.107Z,29.2
2016-08-07T09:53:02.103Z,29.1
2016-08-07T09:53:12.108Z,29.1
2016-08-07T09:53:32.120Z,29
2016-08-07T09:53:42.124Z,29
2016-08-07T09:53:52.126Z,28.9
2016-08-07T09:54:02.135Z,28.8
2016-08-07T09:54:12.140Z,28.6
2016-08-07T09:54:22.142Z,28.4
2016-08-07T09:54:32.156Z,28.3
2016-08-07T09:54:42.156Z,28.4
2016-08-07T09:54:52.166Z,28.3
2016-08-07T09:55:02.167Z,28.3
2016-08-07T09:55:12.173Z,28.3
2016-08-07T09:55:22.175Z,28.4
2016-08-07T09:55:32.187Z,28.4
2016-08-07T09:55:42.187Z,28.3
2016-08-07T09:55:52.195Z,28.2
2016-08-07T09:56:02.198Z,28.2
2016-08-07T09:56:12.204Z,28.2
2016-08-07T09:56:22.212Z,28.3
2016-08-07T09:56:32.223Z,28.3
2016-08-07T09:56:42.221Z,28.1
2016-08-07T09:56:52.223Z,28.1
2016-08-07T09:57:02.230Z,28.2
2016-08-07T09:57:12.244Z,28.2
2016-08-07T09:57:22.239Z,28.2
2016-08-07T09:57:32.249Z,28.2
2016-08-07T09:57:42.253Z,28.1
2016-08-07T09:57:52.260Z,28
2016-08-07T09:58:02.271Z,28.1
2016-08-07T09:58:12.271Z,28.1
2016-08-07T09:58:22.271Z,28
2016-08-07T09:58:31.541Z,28
2016-08-07T09:58:42.283Z,27.9
2016-08-07T09:58:52.291Z,27.8
2016-08-07T09:59:01.564Z,27.8
2016-08-07T09:59:12.300Z,27.8
2016-08-07T09:59:22.304Z,27.8
2016-08-07T09:59:32.310Z,27.8
2016-08-07T09:59:42.321Z,27.8
2016-08-07T09:59:52.372Z,27.7
2016-08-07T10:00:02.326Z,27.7
2016-08-07T10:00:12.330Z,27.7
2016-08-07T10:00:22.337Z,27.7
2016-08-07T10:00:32.340Z,27.6
2016-08-07T10:00:42.346Z,27.7
2016-08-07T10:00:52.350Z,27.6
2016-08-07T10:01:02.404Z,27.7
2016-08-07T10:01:12.360Z,27.7
2016-08-07T10:01:22.365Z,27.6
2016-08-07T10:01:30.904Z,27.6
2016-08-07T10:01:42.385Z,27.6
2016-08-07T10:01:52.384Z,27.7
2016-08-07T10:02:02.394Z,27.7
2016-08-07T10:02:12.392Z,27.6
2016-08-07T10:02:22.401Z,27.6
2016-08-07T10:02:32.406Z,27.6
2016-08-07T10:02:42.407Z,27.4
2016-08-07T10:02:52.425Z,27.4
2016-08-07T10:03:02.419Z,27.4
2016-08-07T10:03:12.425Z,27.2
2016-08-07T10:03:22.428Z,27.2
2016-08-07T10:03:32.433Z,27.2
2016-08-07T10:03:42.441Z,27.2
2016-08-07T10:03:52.446Z,27.2
2016-08-07T10:04:02.448Z,27.1
2016-08-07T10:04:12.463Z,27.1
2016-08-07T10:04:22.458Z,27.1
2016-08-07T10:04:32.469Z,27
2016-08-07T10:04:42.472Z,26.9
2016-08-07T10:04:52.564Z,26.9
2016-08-07T10:05:02.478Z,27
2016-08-07T10:05:11.757Z,27
2016-08-07T10:05:22.487Z,27